sensor_id;sensor_type;location;lat;lon;timestamp;pressure;altitude;pressure_sealevel;temperature;humidity
21100;BME280;10708;50.824;4.408;2022-11-13T00:03:28;101662.00;;;8.56;100.00
21100;BME280;10708;50.824;4.408;2022-11-13T00:08:32;101661.13;;;8.55;100.00
21100;BME280;10708;50.824;4.408;2022-11-13T00:13:35;101661.09;;;8.58;100.00
21100;BME280;10708;50.824;4.408;2022-11-13T00:18:37;101647.13;;;8.51;100.00
21100;BME280;10708;50.824;4.408;2022-11-13T00:23:41;101635.84;;;8.43;100.00
21100;BME280;10708;50.824;4.408;2022-11-13T00:28:44;101647.31;;;8.36;100.00
21100;BME280;10708;50.824;4.408;2022-11-13T00:33:47;101645.56;;;8.37;100.00
21100;BME280;10708;50.824;4.408;2022-11-13T00:38:50;101648.19;;;8.34;100.00
21100;BME280;10708;50.824;4.408;2022-11-13T00:43:53;101647.31;;;8.29;100.00
21100;BME280;10708;50.824;4.408;2022-11-13T00:48:55;101643.88;;;8.24;100.00
21100;BME280;10708;50.824;4.408;2022-11-13T00:53:59;101628.16;;;8.19;100.00
21100;BME280;10708;50.824;4.408;2022-11-13T00:59:01;101615.03;;;8.19;100.00
21100;BME280;10708;50.824;4.408;2022-11-13T01:04:04;101611.53;;;8.20;100.00
21100;BME280;10708;50.824;4.408;2022-11-13T01:09:08;101602.78;;;8.23;100.00
21100;BME280;10708;50.824;4.408;2022-11-13T01:14:10;101608.00;;;8.27;100.00
21100;BME280;10708;50.824;4.408;2022-11-13T01:19:12;101601.84;;;8.31;100.00
21100;BME280;10708;50.824;4.408;2022-11-13T01:24:16;101593.06;;;8.29;100.00
21100;BME280;10708;50.824;4.408;2022-11-13T01:29:18;101588.78;;;8.24;100.00
21100;BME280;10708;50.824;4.408;2022-11-13T01:34:20;101574.78;;;8.20;100.00
21100;BME280;10708;50.824;4.408;2022-11-13T01:39:24;101567.88;;;8.14;100.00
21100;BME280;10708;50.824;4.408;2022-11-13T01:44:45;101567.00;;;8.12;100.00
21100;BME280;10708;50.824;4.408;2022-11-13T01:49:50;101554.75;;;8.13;100.00
21100;BME280;10708;50.824;4.408;2022-11-13T01:54:58;101553.91;;;8.11;100.00
21100;BME280;10708;50.824;4.408;2022-11-13T02:00:05;101551.28;;;8.11;100.00
21100;BME280;10708;50.824;4.408;2022-11-13T02:05:08;101558.28;;;8.10;100.00
21100;BME280;10708;50.824;4.408;2022-11-13T02:10:11;101544.31;;;8.08;100.00
21100;BME280;10708;50.824;4.408;2022-11-13T02:15:14;101535.63;;;8.03;100.00
21100;BME280;10708;50.824;4.408;2022-11-13T02:20:20;101534.75;;;8.01;100.00
21100;BME280;10708;50.824;4.408;2022-11-13T02:25:26;101531.25;;;8.01;100.00
21100;BME280;10708;50.824;4.408;2022-11-13T02:30:32;101528.63;;;8.02;100.00
21100;BME280;10708;50.824;4.408;2022-11-13T02:35:36;101520.78;;;7.99;100.00
21100;BME280;10708;50.824;4.408;2022-11-13T02:40:41;101519.09;;;7.94;100.00
21100;BME280;10708;50.824;4.408;2022-11-13T02:45:43;101517.34;;;7.93;100.00
21100;BME280;10708;50.824;4.408;2022-11-13T02:50:46;101513.88;;;7.91;100.00
21100;BME280;10708;50.824;4.408;2022-11-13T02:55:50;101510.47;;;7.81;100.00
21100;BME280;10708;50.824;4.408;2022-11-13T03:00:52;101500.06;;;7.75;100.00
21100;BME280;10708;50.824;4.408;2022-11-13T03:05:54;101486.16;;;7.67;100.00
21100;BME280;10708;50.824;4.408;2022-11-13T03:10:58;101478.31;;;7.61;100.00
21100;BME280;10708;50.824;4.408;2022-11-13T03:16:06;101482.69;;;7.59;100.00
21100;BME280;10708;50.824;4.408;2022-11-13T03:21:11;101473.06;;;7.62;100.00
21100;BME280;10708;50.824;4.408;2022-11-13T03:26:16;101471.31;;;7.64;100.00
21100;BME280;10708;50.824;4.408;2022-11-13T03:31:19;101467.81;;;7.65;100.00
21100;BME280;10708;50.824;4.408;2022-11-13T03:36:21;101473.94;;;7.63;100.00
21100;BME280;10708;50.824;4.408;2022-11-13T03:41:25;101471.38;;;7.58;100.00
21100;BME280;10708;50.824;4.408;2022-11-13T03:46:27;101466.13;;;7.57;100.00
21100;BME280;10708;50.824;4.408;2022-11-13T03:51:29;101465.22;;;7.61;100.00
21100;BME280;10708;50.824;4.408;2022-11-13T03:56:33;101458.19;;;7.63;100.00
21100;BME280;10708;50.824;4.408;2022-11-13T04:01:35;101452.94;;;7.67;100.00
21100;BME280;10708;50.824;4.408;2022-11-13T04:06:38;101452.84;;;7.73;100.00
21100;BME280;10708;50.824;4.408;2022-11-13T04:11:41;101443.16;;;7.82;100.00
21100;BME280;10708;50.824;4.408;2022-11-13T04:16:44;101441.38;;;7.85;100.00
21100;BME280;10708;50.824;4.408;2022-11-13T04:21:46;101437.03;;;7.83;100.00
21100;BME280;10708;50.824;4.408;2022-11-13T04:26:49;101440.59;;;7.78;100.00
21100;BME280;10708;50.824;4.408;2022-11-13T04:31:52;101445.00;;;7.73;100.00
21100;BME280;10708;50.824;4.408;2022-11-13T04:36:54;101450.31;;;7.67;100.00
21100;BME280;10708;50.824;4.408;2022-11-13T04:41:58;101446.03;;;7.57;100.00
21100;BME280;10708;50.824;4.408;2022-11-13T04:47:17;101436.47;;;7.49;100.00
21100;BME280;10708;50.824;4.408;2022-11-13T04:52:20;101433.94;;;7.43;100.00
21100;BME280;10708;50.824;4.408;2022-11-13T04:57:23;101429.63;;;7.34;100.00
21100;BME280;10708;50.824;4.408;2022-11-13T05:02:26;101432.31;;;7.28;100.00
21100;BME280;10708;50.824;4.408;2022-11-13T05:07:28;101414.91;;;7.21;100.00
21100;BME280;10708;50.824;4.408;2022-11-13T05:12:32;101394.88;;;7.12;100.00
21100;BME280;10708;50.824;4.408;2022-11-13T05:17:34;101404.56;;;7.06;100.00
21100;BME280;10708;50.824;4.408;2022-11-13T05:22:36;101393.28;;;6.97;100.00
21100;BME280;10708;50.824;4.408;2022-11-13T05:27:40;101391.56;;;6.95;100.00
21100;BME280;10708;50.824;4.408;2022-11-13T05:32:42;101389.88;;;6.88;100.00
21100;BME280;10708;50.824;4.408;2022-11-13T05:37:45;101390.78;;;6.79;100.00
21100;BME280;10708;50.824;4.408;2022-11-13T05:42:48;101386.47;;;6.75;100.00
21100;BME280;10708;50.824;4.408;2022-11-13T05:47:50;101396.06;;;6.72;100.00
21100;BME280;10708;50.824;4.408;2022-11-13T05:52:53;101395.25;;;6.65;100.00
21100;BME280;10708;50.824;4.408;2022-11-13T05:57:57;101384.84;;;6.56;100.00
21100;BME280;10708;50.824;4.408;2022-11-13T06:02:59;101386.66;;;6.46;100.00
21100;BME280;10708;50.824;4.408;2022-11-13T06:08:01;101374.50;;;6.36;100.00
21100;BME280;10708;50.824;4.408;2022-11-13T06:13:05;101378.03;;;6.27;100.00
21100;BME280;10708;50.824;4.408;2022-11-13T06:18:07;101373.72;;;6.17;100.00
21100;BME280;10708;50.824;4.408;2022-11-13T06:23:10;101370.25;;;6.09;100.00
21100;BME280;10708;50.824;4.408;2022-11-13T06:28:13;101364.19;;;6.00;100.00
21100;BME280;10708;50.824;4.408;2022-11-13T06:33:16;101358.13;;;5.95;100.00
21100;BME280;10708;50.824;4.408;2022-11-13T06:38:18;101364.25;;;5.84;100.00
21100;BME280;10708;50.824;4.408;2022-11-13T06:43:22;101357.31;;;5.77;100.00
21100;BME280;10708;50.824;4.408;2022-11-13T06:48:24;101351.22;;;5.72;100.00
21100;BME280;10708;50.824;4.408;2022-11-13T06:53:26;101351.25;;;5.68;100.00
21100;BME280;10708;50.824;4.408;2022-11-13T06:58:30;101352.09;;;5.64;100.00
21100;BME280;10708;50.824;4.408;2022-11-13T07:03:32;101347.75;;;5.63;100.00
21100;BME280;10708;50.824;4.408;2022-11-13T07:08:35;101340.78;;;5.62;100.00
21100;BME280;10708;50.824;4.408;2022-11-13T07:13:39;101353.84;;;5.65;100.00
21100;BME280;10708;50.824;4.408;2022-11-13T07:18:41;101353.81;;;5.69;100.00
21100;BME280;10708;50.824;4.408;2022-11-13T07:23:43;101351.22;;;5.69;100.00
21100;BME280;10708;50.824;4.408;2022-11-13T07:28:49;101341.63;;;5.73;100.00
21100;BME280;10708;50.824;4.408;2022-11-13T07:33:51;101335.53;;;5.75;100.00
21100;BME280;10708;50.824;4.408;2022-11-13T07:38:54;101344.19;;;5.82;100.00
21100;BME280;10708;50.824;4.408;2022-11-13T07:43:57;101338.97;;;5.94;100.00
21100;BME280;10708;50.824;4.408;2022-11-13T07:49:00;101346.72;;;6.11;100.00
21100;BME280;10708;50.824;4.408;2022-11-13T07:54:02;101338.81;;;6.26;100.00
21100;BME280;10708;50.824;4.408;2022-11-13T07:59:06;101352.72;;;6.31;100.00
21100;BME280;10708;50.824;4.408;2022-11-13T08:04:11;101355.31;;;6.33;100.00
21100;BME280;10708;50.824;4.408;2022-11-13T08:09:13;101347.47;;;6.33;100.00
21100;BME280;10708;50.824;4.408;2022-11-13T08:14:17;101352.72;;;6.31;100.00
21100;BME280;10708;50.824;4.408;2022-11-13T08:19:19;101344.84;;;6.34;100.00
21100;BME280;10708;50.824;4.408;2022-11-13T08:24:21;101346.59;;;6.37;100.00
21100;BME280;10708;50.824;4.408;2022-11-13T08:29:28;101356.13;;;6.39;100.00
21100;BME280;10708;50.824;4.408;2022-11-13T08:34:30;101358.75;;;6.44;100.00
21100;BME280;10708;50.824;4.408;2022-11-13T08:39:32;101345.59;;;6.53;100.00
21100;BME280;10708;50.824;4.408;2022-11-13T08:44:37;101334.91;;;6.82;100.00
21100;BME280;10708;50.824;4.408;2022-11-13T08:49:39;101340.63;;;7.25;100.00
21100;BME280;10708;50.824;4.408;2022-11-13T08:54:41;101336.63;;;7.70;100.00
21100;BME280;10708;50.824;4.408;2022-11-13T08:59:45;101329.13;;;8.11;100.00
21100;BME280;10708;50.824;4.408;2022-11-13T09:04:47;101327.19;;;8.27;100.00
21100;BME280;10708;50.824;4.408;2022-11-13T09:10:01;101319.25;;;8.32;100.00
21100;BME280;10708;50.824;4.408;2022-11-13T09:15:11;101324.47;;;8.30;100.00
21100;BME280;10708;50.824;4.408;2022-11-13T09:20:15;101314.06;;;8.27;100.00
21100;BME280;10708;50.824;4.408;2022-11-13T09:25:17;101325.38;;;8.29;100.00
21100;BME280;10708;50.824;4.408;2022-11-13T09:30:22;101316.47;;;8.42;100.00
21100;BME280;10708;50.824;4.408;2022-11-13T09:35:25;101309.19;;;8.60;100.00
21100;BME280;10708;50.824;4.408;2022-11-13T09:40:42;101302.81;;;8.77;100.00
21100;BME280;10708;50.824;4.408;2022-11-13T09:45:55;101292.81;;;8.98;100.00
21100;BME280;10708;50.824;4.408;2022-11-13T09:51:03;101295.09;;;9.17;100.00
21100;BME280;10708;50.824;4.408;2022-11-13T09:56:17;101286.91;;;9.33;100.00
21100;BME280;10708;50.824;4.408;2022-11-13T10:01:27;101278.75;;;9.46;100.00
21100;BME280;10708;50.824;4.408;2022-11-13T10:06:42;101268.06;;;9.55;100.00
21100;BME280;10708;50.824;4.408;2022-11-13T10:11:51;101263.44;;;9.67;100.00
21100;BME280;10708;50.824;4.408;2022-11-13T10:16:59;101259.59;;;9.81;100.00
21100;BME280;10708;50.824;4.408;2022-11-13T10:22:11;101252.16;;;10.00;100.00
21100;BME280;10708;50.824;4.408;2022-11-13T10:27:16;101242.13;;;10.19;100.00
21100;BME280;10708;50.824;4.408;2022-11-13T10:32:22;101251.25;;;10.41;100.00
21100;BME280;10708;50.824;4.408;2022-11-13T10:37:39;101240.22;;;10.61;100.00
21100;BME280;10708;50.824;4.408;2022-11-13T10:42:44;101242.44;;;10.78;100.00
21100;BME280;10708;50.824;4.408;2022-11-13T10:47:50;101240.25;;;10.93;100.00
21100;BME280;10708;50.824;4.408;2022-11-13T10:52:54;101233.88;;;11.02;100.00
21100;BME280;10708;50.824;4.408;2022-11-13T10:57:58;101213.34;;;11.13;100.00
21100;BME280;10708;50.824;4.408;2022-11-13T11:03:02;101199.88;;;11.24;100.00
21100;BME280;10708;50.824;4.408;2022-11-13T11:08:08;101188.19;;;11.32;100.00
21100;BME280;10708;50.824;4.408;2022-11-13T11:13:20;101175.66;;;11.40;100.00
21100;BME280;10708;50.824;4.408;2022-11-13T11:18:29;101184.13;;;11.52;100.00
21100;BME280;10708;50.824;4.408;2022-11-13T11:23:37;101174.09;;;11.63;100.00
21100;BME280;10708;50.824;4.408;2022-11-13T11:28:46;101169.38;;;11.74;100.00
21100;BME280;10708;50.824;4.408;2022-11-13T11:33:55;101156.69;;;11.87;100.00
21100;BME280;10708;50.824;4.408;2022-11-13T11:39:05;101152.69;;;12.01;100.00
21100;BME280;10708;50.824;4.408;2022-11-13T11:44:24;101146.00;;;12.17;100.00
21100;BME280;10708;50.824;4.408;2022-11-13T11:49:30;101133.19;;;12.32;100.00
21100;BME280;10708;50.824;4.408;2022-11-13T11:54:39;101133.53;;;12.47;100.00
21100;BME280;10708;50.824;4.408;2022-11-13T11:59:54;101113.63;;;12.62;100.00
21100;BME280;10708;50.824;4.408;2022-11-13T12:05:12;101103.31;;;12.79;100.00
21100;BME280;10708;50.824;4.408;2022-11-13T12:10:27;101107.13;;;12.96;100.00
21100;BME280;10708;50.824;4.408;2022-11-13T12:15:41;101096.03;;;13.09;100.00
21100;BME280;10708;50.824;4.408;2022-11-13T12:20:51;101082.31;;;13.23;100.00
21100;BME280;10708;50.824;4.408;2022-11-13T12:26:01;101080.06;;;13.36;100.00
21100;BME280;10708;50.824;4.408;2022-11-13T12:31:14;101081.38;;;13.47;100.00
21100;BME280;10708;50.824;4.408;2022-11-13T12:36:22;101065.91;;;13.58;100.00
21100;BME280;10708;50.824;4.408;2022-11-13T12:41:32;101054.25;;;13.64;100.00
21100;BME280;10708;50.824;4.408;2022-11-13T12:46:38;101050.28;;;13.74;100.00
21100;BME280;10708;50.824;4.408;2022-11-13T12:51:53;101048.25;;;13.81;100.00
21100;BME280;10708;50.824;4.408;2022-11-13T12:57:23;101036.41;;;13.89;100.00
21100;BME280;10708;50.824;4.408;2022-11-13T13:02:36;101037.81;;;13.98;100.00
21100;BME280;10708;50.824;4.408;2022-11-13T13:08:07;101022.31;;;14.09;100.00
21100;BME280;10708;50.824;4.408;2022-11-13T13:13:30;101018.50;;;14.16;100.00
21100;BME280;10708;50.824;4.408;2022-11-13T13:18:36;101010.34;;;14.21;100.00
21100;BME280;10708;50.824;4.408;2022-11-13T13:23:46;101004.13;;;14.22;100.00
21100;BME280;10708;50.824;4.408;2022-11-13T13:28:51;100995.81;;;14.29;100.00
21100;BME280;10708;50.824;4.408;2022-11-13T13:34:01;100993.09;;;14.31;100.00
21100;BME280;10708;50.824;4.408;2022-11-13T13:39:18;100984.19;;;14.33;100.00
21100;BME280;10708;50.824;4.408;2022-11-13T13:44:34;100968.91;;;14.38;100.00
21100;BME280;10708;50.824;4.408;2022-11-13T13:49:38;100962.31;;;14.49;100.00
21100;BME280;10708;50.824;4.408;2022-11-13T13:54:50;100962.09;;;14.53;100.00
21100;BME280;10708;50.824;4.408;2022-11-13T14:00:13;100956.75;;;14.55;100.00
21100;BME280;10708;50.824;4.408;2022-11-13T14:05:26;100955.88;;;14.54;100.00
21100;BME280;10708;50.824;4.408;2022-11-13T14:10:45;100949.84;;;14.51;100.00
21100;BME280;10708;50.824;4.408;2022-11-13T14:15:47;100947.63;;;14.60;100.00
21100;BME280;10708;50.824;4.408;2022-11-13T14:20:52;100946.06;;;14.56;100.00
21100;BME280;10708;50.824;4.408;2022-11-13T14:25:58;100944.97;;;14.60;100.00
21100;BME280;10708;50.824;4.408;2022-11-13T14:31:03;100944.13;;;14.60;100.00
21100;BME280;10708;50.824;4.408;2022-11-13T14:36:08;100945.34;;;14.53;100.00
21100;BME280;10708;50.824;4.408;2022-11-13T14:41:25;100941.91;;;14.51;100.00
21100;BME280;10708;50.824;4.408;2022-11-13T14:46:33;100940.34;;;14.47;100.00
21100;BME280;10708;50.824;4.408;2022-11-13T14:51:37;100925.50;;;14.43;100.00
21100;BME280;10708;50.824;4.408;2022-11-13T14:56:41;100940.69;;;14.37;100.00
21100;BME280;10708;50.824;4.408;2022-11-13T15:01:53;100926.06;;;14.29;100.00
21100;BME280;10708;50.824;4.408;2022-11-13T15:07:17;100938.19;;;14.16;100.00
21100;BME280;10708;50.824;4.408;2022-11-13T15:12:21;100928.91;;;14.06;100.00
21100;BME280;10708;50.824;4.408;2022-11-13T15:17:24;100928.19;;;14.02;100.00
21100;BME280;10708;50.824;4.408;2022-11-13T15:22:26;100920.59;;;13.94;100.00
21100;BME280;10708;50.824;4.408;2022-11-13T15:27:37;100930.72;;;13.85;100.00
21100;BME280;10708;50.824;4.408;2022-11-13T15:32:42;100919.72;;;13.74;100.00
21100;BME280;10708;50.824;4.408;2022-11-13T15:37:45;100917.81;;;13.57;100.00
21100;BME280;10708;50.824;4.408;2022-11-13T15:42:49;100904.16;;;13.46;100.00
21100;BME280;10708;50.824;4.408;2022-11-13T15:47:52;100889.44;;;13.18;100.00
21100;BME280;10708;50.824;4.408;2022-11-13T15:52:54;100893.06;;;12.94;100.00
21100;BME280;10708;50.824;4.408;2022-11-13T15:57:58;100883.38;;;12.71;100.00
21100;BME280;10708;50.824;4.408;2022-11-13T16:03:01;100890.94;;;12.58;100.00
21100;BME280;10708;50.824;4.408;2022-11-13T16:08:10;100882.19;;;12.35;100.00
21100;BME280;10708;50.824;4.408;2022-11-13T16:13:14;100874.31;;;12.10;100.00
21100;BME280;10708;50.824;4.408;2022-11-13T16:18:22;100874.41;;;11.83;100.00
21100;BME280;10708;50.824;4.408;2022-11-13T16:23:25;100877.94;;;11.58;100.00
21100;BME280;10708;50.824;4.408;2022-11-13T16:28:29;100869.19;;;11.31;100.00
21100;BME280;10708;50.824;4.408;2022-11-13T16:33:32;100872.47;;;11.11;100.00
21100;BME280;10708;50.824;4.408;2022-11-13T16:38:35;100874.00;;;10.92;100.00
21100;BME280;10708;50.824;4.408;2022-11-13T16:43:39;100872.84;;;10.72;100.00
21100;BME280;10708;50.824;4.408;2022-11-13T16:48:43;100868.16;;;10.54;100.00
21100;BME280;10708;50.824;4.408;2022-11-13T16:53:46;100864.31;;;10.37;100.00
21100;BME280;10708;50.824;4.408;2022-11-13T16:58:51;100864.84;;;10.18;100.00
21100;BME280;10708;50.824;4.408;2022-11-13T17:03:53;100867.91;;;10.03;100.00
21100;BME280;10708;50.824;4.408;2022-11-13T17:08:59;100863.09;;;9.88;100.00
21100;BME280;10708;50.824;4.408;2022-11-13T17:14:04;100863.53;;;9.71;100.00
21100;BME280;10708;50.824;4.408;2022-11-13T17:19:09;100856.09;;;9.56;100.00
21100;BME280;10708;50.824;4.408;2022-11-13T17:24:11;100855.56;;;9.42;100.00
21100;BME280;10708;50.824;4.408;2022-11-13T17:29:15;100856.75;;;9.30;100.00
21100;BME280;10708;50.824;4.408;2022-11-13T17:34:18;100859.66;;;9.19;100.00
21100;BME280;10708;50.824;4.408;2022-11-13T17:39:21;100870.44;;;9.09;100.00
21100;BME280;10708;50.824;4.408;2022-11-13T17:44:25;100864.47;;;9.02;100.00
21100;BME280;10708;50.824;4.408;2022-11-13T17:49:27;100869.03;;;8.96;100.00
21100;BME280;10708;50.824;4.408;2022-11-13T17:54:30;100858.81;;;8.83;100.00
21100;BME280;10708;50.824;4.408;2022-11-13T17:59:34;100860.66;;;8.78;100.00
21100;BME280;10708;50.824;4.408;2022-11-13T18:04:36;100858.13;;;8.75;100.00
21100;BME280;10708;50.824;4.408;2022-11-13T18:09:39;100842.50;;;8.69;100.00
21100;BME280;10708;50.824;4.408;2022-11-13T18:14:43;100850.44;;;8.68;100.00
21100;BME280;10708;50.824;4.408;2022-11-13T18:19:52;100839.16;;;8.63;100.00
21100;BME280;10708;50.824;4.408;2022-11-13T18:24:55;100841.78;;;8.63;100.00
21100;BME280;10708;50.824;4.408;2022-11-13T18:29:59;100830.41;;;8.64;100.00
21100;BME280;10708;50.824;4.408;2022-11-13T18:35:07;100826.97;;;8.60;100.00
21100;BME280;10708;50.824;4.408;2022-11-13T18:40:10;100818.34;;;8.55;100.00
21100;BME280;10708;50.824;4.408;2022-11-13T18:45:14;100815.78;;;8.52;100.00
21100;BME280;10708;50.824;4.408;2022-11-13T18:50:16;100810.69;;;8.46;100.00
21100;BME280;10708;50.824;4.408;2022-11-13T18:55:19;100803.69;;;8.46;100.00
21100;BME280;10708;50.824;4.408;2022-11-13T19:00:22;100786.44;;;8.35;100.00
21100;BME280;10708;50.824;4.408;2022-11-13T19:05:25;100779.69;;;8.23;100.00
21100;BME280;10708;50.824;4.408;2022-11-13T19:10:32;100769.47;;;8.11;100.00
21100;BME280;10708;50.824;4.408;2022-11-13T19:15:36;100754.06;;;7.96;100.00
21100;BME280;10708;50.824;4.408;2022-11-13T19:20:39;100745.63;;;7.82;100.00
21100;BME280;10708;50.824;4.408;2022-11-13T19:31:07;100732.09;;;7.60;100.00
21100;BME280;10708;50.824;4.408;2022-11-13T19:36:11;100733.97;;;7.55;100.00
21100;BME280;10708;50.824;4.408;2022-11-13T19:41:15;100738.09;;;7.68;100.00
21100;BME280;10708;50.824;4.408;2022-11-13T19:46:19;100743.16;;;7.75;100.00
21100;BME280;10708;50.824;4.408;2022-11-13T19:51:23;100742.41;;;7.69;100.00
21100;BME280;10708;50.824;4.408;2022-11-13T19:56:26;100721.59;;;7.61;100.00
21100;BME280;10708;50.824;4.408;2022-11-13T20:01:31;100713.94;;;7.52;100.00
21100;BME280;10708;50.824;4.408;2022-11-13T20:06:48;100706.31;;;7.40;100.00
21100;BME280;10708;50.824;4.408;2022-11-13T20:11:52;100701.22;;;7.34;100.00
21100;BME280;10708;50.824;4.408;2022-11-13T20:16:56;100701.41;;;7.23;100.00
21100;BME280;10708;50.824;4.408;2022-11-13T20:22:03;100706.81;;;7.16;100.00
21100;BME280;10708;50.824;4.408;2022-11-13T20:27:06;100708.66;;;7.11;100.00
21100;BME280;10708;50.824;4.408;2022-11-13T20:32:10;100702.63;;;7.07;100.00
21100;BME280;10708;50.824;4.408;2022-11-13T20:37:13;100709.66;;;7.03;100.00
21100;BME280;10708;50.824;4.408;2022-11-13T20:42:18;100695.75;;;7.00;100.00
21100;BME280;10708;50.824;4.408;2022-11-13T20:47:27;100701.84;;;7.00;100.00
21100;BME280;10708;50.824;4.408;2022-11-13T20:52:35;100690.59;;;6.97;100.00
21100;BME280;10708;50.824;4.408;2022-11-13T20:57:39;100692.41;;;6.93;100.00
21100;BME280;10708;50.824;4.408;2022-11-13T21:02:44;100695.94;;;6.91;100.00
21100;BME280;10708;50.824;4.408;2022-11-13T21:07:48;100685.47;;;6.89;100.00
21100;BME280;10708;50.824;4.408;2022-11-13T21:12:52;100687.09;;;6.98;100.00
21100;BME280;10708;50.824;4.408;2022-11-13T21:17:59;100680.94;;;6.99;100.00
21100;BME280;10708;50.824;4.408;2022-11-13T21:23:02;100675.69;;;7.00;100.00
21100;BME280;10708;50.824;4.408;2022-11-13T21:28:08;100679.09;;;7.06;100.00
21100;BME280;10708;50.824;4.408;2022-11-13T21:33:12;100660.59;;;7.13;100.00
21100;BME280;10708;50.824;4.408;2022-11-13T21:38:16;100657.84;;;7.19;100.00
21100;BME280;10708;50.824;4.408;2022-11-13T21:43:18;100658.66;;;7.23;100.00
21100;BME280;10708;50.824;4.408;2022-11-13T21:48:25;100655.13;;;7.24;100.00
21100;BME280;10708;50.824;4.408;2022-11-13T21:53:28;100646.41;;;7.23;100.00
21100;BME280;10708;50.824;4.408;2022-11-13T21:58:32;100635.13;;;7.20;100.00
21100;BME280;10708;50.824;4.408;2022-11-13T22:03:37;100630.00;;;7.15;100.00
21100;BME280;10708;50.824;4.408;2022-11-13T22:08:46;100616.94;;;7.14;100.00
21100;BME280;10708;50.824;4.408;2022-11-13T22:13:52;100608.31;;;7.09;100.00
21100;BME280;10708;50.824;4.408;2022-11-13T22:18:57;100602.34;;;7.02;100.00
21100;BME280;10708;50.824;4.408;2022-11-13T22:24:01;100610.19;;;7.02;100.00
21100;BME280;10708;50.824;4.408;2022-11-13T22:29:04;100592.84;;;6.98;100.00
21100;BME280;10708;50.824;4.408;2022-11-13T22:34:09;100589.47;;;6.90;100.00
21100;BME280;10708;50.824;4.408;2022-11-13T22:39:12;100595.78;;;6.81;100.00
21100;BME280;10708;50.824;4.408;2022-11-13T22:44:16;100593.16;;;6.81;100.00
21100;BME280;10708;50.824;4.408;2022-11-13T22:49:20;100601.88;;;6.82;100.00
21100;BME280;10708;50.824;4.408;2022-11-13T22:54:24;100605.25;;;6.88;100.00
21100;BME280;10708;50.824;4.408;2022-11-13T22:59:27;100605.13;;;6.93;100.00
21100;BME280;10708;50.824;4.408;2022-11-13T23:04:31;100599.03;;;6.92;100.00
21100;BME280;10708;50.824;4.408;2022-11-13T23:09:35;100595.56;;;6.92;100.00
21100;BME280;10708;50.824;4.408;2022-11-13T23:14:39;100599.94;;;6.90;100.00
21100;BME280;10708;50.824;4.408;2022-11-13T23:19:46;100593.09;;;6.84;100.00
21100;BME280;10708;50.824;4.408;2022-11-13T23:24:48;100583.63;;;6.79;100.00
21100;BME280;10708;50.824;4.408;2022-11-13T23:29:51;100567.22;;;6.69;100.00
21100;BME280;10708;50.824;4.408;2022-11-13T23:34:55;100553.44;;;6.59;100.00
21100;BME280;10708;50.824;4.408;2022-11-13T23:39:58;100542.19;;;6.56;100.00
21100;BME280;10708;50.824;4.408;2022-11-13T23:45:00;100532.69;;;6.50;100.00
21100;BME280;10708;50.824;4.408;2022-11-13T23:50:06;100530.19;;;6.46;100.00
21100;BME280;10708;50.824;4.408;2022-11-13T23:55:08;100520.59;;;6.46;100.00
